createdAt,value
2018-02-09T00:01:38.200Z,101666.32
2018-02-09T00:04:05.913Z,101672.02
2018-02-09T00:06:33.744Z,101667.66
2018-02-09T00:09:01.523Z,101664.37
2018-02-09T00:11:29.228Z,101662.94
2018-02-09T00:13:57.029Z,101651.89
2018-02-09T00:16:24.653Z,101660.19
2018-02-09T00:18:52.423Z,101661.31
2018-02-09T00:21:20.164Z,101658.55
2018-02-09T00:23:47.821Z,101663.16
2018-02-09T00:26:15.794Z,101661.10
2018-02-09T00:28:43.515Z,101660.20
2018-02-09T00:31:11.227Z,101651.22
2018-02-09T00:33:39.199Z,101646.92
2018-02-09T00:36:06.948Z,101653.26
2018-02-09T00:38:34.635Z,101647.25
2018-02-09T00:41:02.339Z,101639.69
2018-02-09T00:43:30.085Z,101643.47
2018-02-09T00:45:57.837Z,101649.38
2018-02-09T00:48:25.443Z,101642.84
2018-02-09T00:50:53.334Z,101637.52
2018-02-09T00:53:21.031Z,101632.11
2018-02-09T00:55:48.740Z,101629.25
2018-02-09T00:58:16.523Z,101631.41
2018-02-09T01:00:44.253Z,101627.53
2018-02-09T01:03:12.022Z,101629.98
2018-02-09T01:06:04.989Z,101624.14
2018-02-09T01:08:32.696Z,101625.68
2018-02-09T01:11:00.354Z,101617.48
2018-02-09T01:13:28.031Z,101619.34
2018-02-09T01:15:55.886Z,101616.05
2018-02-09T01:18:23.823Z,101608.19
2018-02-09T01:20:51.558Z,101614.83
2018-02-09T01:23:19.219Z,101613.48
2018-02-09T01:25:46.860Z,101610.14
2018-02-09T01:28:15.997Z,101614.55
2018-02-09T01:30:43.712Z,101614.55
2018-02-09T01:33:11.363Z,101610.63
2018-02-09T01:35:39.049Z,101605.84
2018-02-09T01:38:06.788Z,101604.28
2018-02-09T01:40:34.499Z,101601.94
2018-02-09T01:43:02.205Z,101601.12
2018-02-09T01:45:29.886Z,101595.48
2018-02-09T01:47:57.551Z,101599.78
2018-02-09T01:50:25.256Z,101592.71
2018-02-09T01:52:52.905Z,101590.96
2018-02-09T01:55:21.145Z,101591.98
2018-02-09T01:57:49.514Z,101591.80
2018-02-09T02:00:17.477Z,101590.25
2018-02-09T02:02:45.448Z,101581.66
2018-02-09T02:05:13.263Z,101576.76
2018-02-09T02:07:40.874Z,101574.30
2018-02-09T02:10:08.843Z,101576.33
2018-02-09T02:12:36.709Z,101578.18
2018-02-09T02:15:04.424Z,101572.55
2018-02-09T02:17:32.084Z,101573.58
2018-02-09T02:19:59.719Z,101571.22
2018-02-09T02:22:27.738Z,101577.77
2018-02-09T02:24:55.497Z,101562.94
2018-02-09T02:27:23.422Z,101568.15
2018-02-09T02:29:51.137Z,101561.61
2018-02-09T02:32:18.828Z,101553.72
2018-02-09T02:34:46.536Z,101548.53
2018-02-09T02:37:14.198Z,101547.61
2018-02-09T02:39:41.881Z,101545.03
2018-02-09T02:42:09.527Z,101543.51
2018-02-09T02:44:37.220Z,101538.91
2018-02-09T02:47:04.868Z,101530.00
2018-02-09T02:49:32.536Z,101532.89
2018-02-09T02:52:00.215Z,101529.21
2018-02-09T02:54:27.848Z,101532.67
2018-02-09T02:56:55.501Z,101526.44
2018-02-09T02:59:23.221Z,101528.79
2018-02-09T03:01:50.869Z,101523.69
2018-02-09T03:04:18.570Z,101524.30
2018-02-09T03:06:46.277Z,101520.63
2018-02-09T03:09:13.979Z,101521.17
2018-02-09T03:11:41.618Z,101519.34
2018-02-09T03:14:09.705Z,101510.36
2018-02-09T03:16:37.364Z,101509.45
2018-02-09T03:19:04.994Z,101508.30
2018-02-09T03:21:33.005Z,101503.73
2018-02-09T03:24:00.638Z,101506.70
2018-02-09T03:26:28.295Z,101505.97
2018-02-09T03:28:55.950Z,101508.34
2018-02-09T03:31:23.620Z,101498.14
2018-02-09T03:33:51.733Z,101497.73
2018-02-09T03:36:19.403Z,101496.42
2018-02-09T03:38:47.108Z,101489.98
2018-02-09T03:41:14.714Z,101492.75
2018-02-09T03:43:42.324Z,101484.37
2018-02-09T03:46:09.963Z,101483.37
2018-02-09T03:48:37.563Z,101482.95
2018-02-09T03:51:05.201Z,101483.06
2018-02-09T03:53:32.841Z,101479.59
2018-02-09T03:56:00.503Z,101478.91
2018-02-09T03:58:28.100Z,101476.54
2018-02-09T04:00:55.719Z,101471.23
2018-02-09T04:03:23.669Z,101465.71
2018-02-09T04:05:51.287Z,101463.47
2018-02-09T04:08:19.496Z,101457.27
2018-02-09T04:10:47.131Z,101461.27
2018-02-09T04:13:14.737Z,101448.20
2018-02-09T04:15:42.496Z,101449.70
2018-02-09T04:18:10.102Z,101447.48
2018-02-09T04:20:37.719Z,101450.66
2018-02-09T04:23:05.683Z,101437.18
2018-02-09T04:25:33.648Z,101444.34
2018-02-09T04:28:01.225Z,101440.36
2018-02-09T04:30:28.836Z,101435.06
2018-02-09T04:32:56.456Z,101437.41
2018-02-09T04:35:24.110Z,101429.45
2018-02-09T04:37:51.729Z,101434.86
2018-02-09T04:40:19.338Z,101435.25
2018-02-09T04:42:46.921Z,101436.47
2018-02-09T04:45:15.243Z,101437.52
2018-02-09T04:47:42.850Z,101426.06
2018-02-09T04:50:10.483Z,101424.36
2018-02-09T04:52:38.165Z,101425.78
2018-02-09T04:55:05.759Z,101421.88
2018-02-09T04:57:33.351Z,101422.41
2018-02-09T05:00:01.035Z,101420.05
2018-02-09T05:02:28.790Z,101413.52
2018-02-09T05:04:56.636Z,101423.82
2018-02-09T05:07:24.435Z,101420.97
2018-02-09T05:09:52.170Z,101420.26
2018-02-09T05:12:20.022Z,101413.63
2018-02-09T05:14:47.701Z,101417.00
2018-02-09T05:17:15.409Z,101417.21
2018-02-09T05:19:43.291Z,101410.03
2018-02-09T05:22:11.602Z,101408.12
2018-02-09T05:24:39.375Z,101408.34
2018-02-09T05:27:07.125Z,101407.92
2018-02-09T05:29:34.988Z,101405.06
2018-02-09T05:32:02.630Z,101399.77
2018-02-09T05:34:30.267Z,101403.85
2018-02-09T05:36:58.213Z,101395.38
2018-02-09T05:39:25.915Z,101393.47
2018-02-09T05:41:53.713Z,101388.46
2018-02-09T05:44:21.916Z,101384.66
2018-02-09T05:46:49.774Z,101381.95
2018-02-09T05:49:17.459Z,101377.88
2018-02-09T05:51:45.115Z,101378.04
2018-02-09T05:54:12.759Z,101372.66
2018-02-09T05:56:40.547Z,101369.27
2018-02-09T05:59:08.182Z,101366.52
2018-02-09T06:01:35.838Z,101366.02
2018-02-09T06:04:03.617Z,101356.00
2018-02-09T06:06:31.816Z,101357.00
2018-02-09T06:08:59.557Z,101357.00
2018-02-09T06:11:27.200Z,101353.23
2018-02-09T06:13:55.142Z,101350.88
2018-02-09T06:16:22.918Z,101348.02
2018-02-09T06:18:50.934Z,101338.40
2018-02-09T06:21:18.545Z,101338.48
2018-02-09T06:23:46.236Z,101338.59
2018-02-09T06:26:14.038Z,101338.02
2018-02-09T06:28:41.892Z,101333.30
2018-02-09T06:31:09.542Z,101337.91
2018-02-09T06:33:37.143Z,101336.84
2018-02-09T06:36:04.765Z,101325.61
2018-02-09T06:38:32.430Z,101330.20
2018-02-09T06:41:00.019Z,101327.47
2018-02-09T06:43:27.967Z,101319.08
2018-02-09T06:45:55.573Z,101321.95
2018-02-09T06:48:23.215Z,101318.55
2018-02-09T06:50:50.862Z,101317.73
2018-02-09T06:53:18.464Z,101320.59
2018-02-09T06:55:46.131Z,101311.08
2018-02-09T06:58:13.743Z,101311.16
2018-02-09T07:00:41.411Z,101312.91
2018-02-09T07:03:09.010Z,101312.36
2018-02-09T07:05:36.630Z,101310.70
2018-02-09T07:08:04.591Z,101317.55
2018-02-09T07:10:32.397Z,101316.41
2018-02-09T07:13:00.158Z,101318.03
2018-02-09T07:15:27.787Z,101317.39
2018-02-09T07:17:55.436Z,101312.78
2018-02-09T07:20:23.471Z,101305.28
2018-02-09T07:22:51.123Z,101309.55
2018-02-09T07:25:18.798Z,101314.20
2018-02-09T07:27:46.829Z,101305.93
2018-02-09T07:30:14.498Z,101303.86
2018-02-09T07:32:42.418Z,101303.22
2018-02-09T07:35:10.085Z,101303.39
2018-02-09T07:37:37.795Z,101294.06
2018-02-09T07:40:05.561Z,101298.71
2018-02-09T07:42:33.206Z,101294.67
2018-02-09T07:45:00.966Z,101297.91
2018-02-09T07:47:28.607Z,101290.78
2018-02-09T07:49:56.359Z,101295.77
2018-02-09T07:52:24.043Z,101290.83
2018-02-09T07:54:52.127Z,101289.02
2018-02-09T07:57:19.779Z,101289.18
2018-02-09T07:59:47.453Z,101290.67
2018-02-09T08:02:15.059Z,101277.37
2018-02-09T08:04:42.713Z,101279.36
2018-02-09T08:07:10.344Z,101277.80
2018-02-09T08:09:38.038Z,101280.70
2018-02-09T08:12:08.933Z,101276.24
2018-02-09T08:14:36.623Z,101275.75
2018-02-09T08:17:04.266Z,101264.83
2018-02-09T08:19:32.843Z,101267.95
2018-02-09T08:22:00.806Z,101265.09
2018-02-09T08:24:28.698Z,101264.20
2018-02-09T08:26:56.311Z,101267.92
2018-02-09T08:29:24.199Z,101270.02
2018-02-09T08:31:52.584Z,101266.39
2018-02-09T08:34:20.282Z,101262.42
2018-02-09T08:36:47.865Z,101265.73
2018-02-09T08:39:15.874Z,101267.31
2018-02-09T08:41:43.470Z,101261.33
2018-02-09T08:44:11.117Z,101258.38
2018-02-09T08:46:38.718Z,101254.34
2018-02-09T08:49:06.562Z,101254.47
2018-02-09T08:51:34.530Z,101253.42
2018-02-09T08:54:02.105Z,101252.11
2018-02-09T08:56:29.778Z,101252.47
2018-02-09T08:58:57.383Z,101253.94
2018-02-09T09:01:33.211Z,101259.28
2018-02-09T09:04:00.838Z,101260.03
2018-02-09T09:06:28.523Z,101260.75
2018-02-09T09:08:56.623Z,101259.44
2018-02-09T09:11:24.214Z,101261.16
2018-02-09T09:13:52.059Z,101257.10
2018-02-09T09:16:19.728Z,101257.05
2018-02-09T09:18:47.381Z,101248.38
2018-02-09T09:21:15.012Z,101250.98
2018-02-09T09:23:42.708Z,101245.35
2018-02-09T09:26:10.328Z,101256.44
2018-02-09T09:28:37.985Z,101248.94
2018-02-09T09:31:05.627Z,101249.71
2018-02-09T09:33:33.661Z,101245.41
2018-02-09T09:36:01.290Z,101242.68
2018-02-09T09:38:29.300Z,101247.19
2018-02-09T09:40:57.343Z,101242.20
2018-02-09T09:43:24.929Z,101247.00
2018-02-09T09:45:52.553Z,101245.72
2018-02-09T09:48:20.215Z,101247.35
2018-02-09T09:50:48.314Z,101237.20
2018-02-09T09:53:15.981Z,101235.03
2018-02-09T09:55:43.597Z,101235.13
2018-02-09T09:58:11.314Z,101233.37
2018-02-09T10:00:38.887Z,101235.85
2018-02-09T10:03:06.522Z,101238.13
2018-02-09T10:05:34.215Z,101231.44
2018-02-09T10:08:01.840Z,101237.80
2018-02-09T10:10:29.832Z,101236.95
2018-02-09T10:12:57.489Z,101232.54
2018-02-09T10:15:25.092Z,101229.80
2018-02-09T10:17:52.717Z,101227.44
2018-02-09T10:20:20.413Z,101231.04
2018-02-09T10:22:48.033Z,101218.98
2018-02-09T10:25:15.641Z,101220.27
2018-02-09T10:27:43.296Z,101222.98
2018-02-09T10:30:10.915Z,101224.84
2018-02-09T10:32:38.582Z,101229.59
2018-02-09T10:35:06.193Z,101218.33
2018-02-09T10:37:34.109Z,101220.21
2018-02-09T10:40:01.756Z,101216.13
2018-02-09T10:42:29.384Z,101211.37
2018-02-09T10:44:57.221Z,101215.97
2018-02-09T10:47:25.228Z,101216.06
2018-02-09T10:49:53.082Z,101211.09
2018-02-09T10:52:21.050Z,101206.55
2018-02-09T10:54:48.790Z,101204.89
2018-02-09T10:57:16.497Z,101204.05
2018-02-09T10:59:44.279Z,101203.72
2018-02-09T11:02:12.014Z,101199.50
2018-02-09T11:04:40.248Z,101196.98
2018-02-09T11:07:08.021Z,101192.39
2018-02-09T11:09:35.775Z,101181.25
2018-02-09T11:12:08.061Z,101187.48
2018-02-09T11:14:36.392Z,101186.73
2018-02-09T11:17:06.255Z,101185.75
2018-02-09T11:19:34.777Z,101188.00
2018-02-09T11:22:06.325Z,101186.89
2018-02-09T11:24:34.120Z,101179.98
2018-02-09T11:27:30.061Z,101180.43
2018-02-09T11:33:28.239Z,101181.84
2018-02-09T11:38:46.768Z,101171.48
2018-02-09T11:41:16.788Z,101166.16
2018-02-09T11:44:03.300Z,101164.44
2018-02-09T12:01:19.734Z,101164.88
2018-02-09T12:06:53.487Z,101155.02
2018-02-09T12:12:21.076Z,101153.80
2018-02-09T12:20:50.023Z,101139.81
2018-02-09T12:23:18.278Z,101144.09
2018-02-09T12:25:54.758Z,101136.08
2018-02-09T12:28:22.917Z,101139.03
2018-02-09T12:30:51.095Z,101130.73
2018-02-09T12:33:18.886Z,101128.66
2018-02-09T12:35:46.951Z,101127.88
2018-02-09T12:38:16.415Z,101126.82
2018-02-09T15:07:02.090Z,101055.03
2018-02-09T17:58:15.239Z,101188.06
2018-02-09T18:03:54.839Z,101176.67
2018-02-09T18:11:06.974Z,101192.92
2018-02-09T18:13:40.338Z,101190.66
2018-02-09T18:16:10.023Z,101195.30
2018-02-09T18:18:38.671Z,101198.68
2018-02-09T18:21:09.431Z,101198.89
2018-02-09T18:23:41.511Z,101208.06
2018-02-09T18:26:12.394Z,101200.42
2018-02-09T18:28:44.461Z,101201.03
2018-02-09T18:31:14.592Z,101197.78
2018-02-09T18:33:45.328Z,101200.02
2018-02-09T18:36:13.219Z,101201.84
2018-02-09T18:38:40.989Z,101201.55
2018-02-09T18:41:08.894Z,101209.39
2018-02-09T18:43:36.841Z,101205.68
2018-02-09T18:46:04.790Z,101205.75
2018-02-09T18:48:32.620Z,101201.75
2018-02-09T18:51:04.843Z,101204.38
2018-02-09T18:53:35.046Z,101202.20
2018-02-09T18:56:08.432Z,101207.38
2018-02-09T18:58:39.351Z,101211.12
2018-02-09T19:01:07.281Z,101210.03
2018-02-09T19:03:34.986Z,101213.28
2018-02-09T19:06:03.245Z,101221.41
2018-02-09T19:08:32.374Z,101219.34
2018-02-09T19:11:00.457Z,101221.67
2018-02-09T19:13:31.138Z,101230.60
2018-02-09T19:16:00.115Z,101232.30
2018-02-09T19:18:27.869Z,101231.09
2018-02-09T19:20:55.921Z,101234.12
2018-02-09T19:23:26.109Z,101232.84
2018-02-09T19:25:53.909Z,101234.50
2018-02-09T19:28:21.971Z,101230.80
2018-02-09T19:30:49.859Z,101235.78
2018-02-09T19:33:17.706Z,101236.44
2018-02-09T19:38:37.271Z,101233.95
2018-02-09T19:41:15.425Z,101238.31
2018-02-09T19:46:41.362Z,101239.98
2018-02-09T19:49:14.468Z,101247.84
2018-02-09T19:51:45.308Z,101245.39
2018-02-09T19:54:17.007Z,101245.75
2018-02-09T19:56:47.198Z,101251.09
2018-02-09T19:59:21.804Z,101252.55
2018-02-09T20:01:50.303Z,101249.58
2018-02-09T20:04:18.404Z,101250.91
2018-02-09T20:09:39.328Z,101252.19
2018-02-09T20:12:09.347Z,101260.37
2018-02-09T20:14:46.512Z,101256.67
2018-02-09T20:17:14.543Z,101257.59
2018-02-09T20:19:42.663Z,101256.73
2018-02-09T20:22:10.576Z,101253.22
2018-02-09T20:24:42.220Z,101252.80
2018-02-09T20:27:10.192Z,101253.78
2018-02-09T20:32:13.365Z,101254.14
2018-02-09T20:34:41.092Z,101259.54
2018-02-09T20:50:50.163Z,101250.63
2018-02-09T20:53:17.952Z,101246.16
2018-02-09T20:55:45.638Z,101242.75
2018-02-09T20:58:13.369Z,101247.16
2018-02-09T21:00:42.287Z,101253.98
2018-02-09T21:03:10.041Z,101251.10
2018-02-09T21:05:38.175Z,101251.22
2018-02-09T21:08:07.449Z,101261.89
2018-02-09T21:10:35.111Z,101257.23
2018-02-09T21:13:02.839Z,101259.73
2018-02-09T21:15:30.535Z,101268.27
2018-02-09T21:17:58.151Z,101259.73
2018-02-09T21:20:25.821Z,101270.16
2018-02-09T21:22:53.470Z,101260.82
2018-02-09T21:25:21.122Z,101270.39
2018-02-09T21:27:49.500Z,101268.61
2018-02-09T21:30:17.148Z,101270.33
2018-02-09T21:32:44.848Z,101265.46
2018-02-09T21:35:12.536Z,101274.68
2018-02-09T21:37:40.130Z,101276.93
2018-02-09T21:40:07.784Z,101277.05
2018-02-09T21:42:35.506Z,101284.60
2018-02-09T21:45:03.108Z,101284.92
2018-02-09T21:47:30.780Z,101281.04
2018-02-09T21:49:58.471Z,101286.11
2018-02-09T21:52:26.116Z,101287.14
2018-02-09T21:54:53.765Z,101286.95
2018-02-09T21:57:21.428Z,101291.76
2018-02-09T21:59:49.405Z,101291.37
2018-02-09T22:02:17.098Z,101289.14
2018-02-09T22:04:44.811Z,101286.41
2018-02-09T22:07:12.619Z,101287.98
2018-02-09T22:09:40.261Z,101284.52
2018-02-09T22:12:08.014Z,101283.41
2018-02-09T22:14:35.690Z,101288.75
2018-02-09T22:17:03.388Z,101290.58
2018-02-09T22:19:31.199Z,101291.80
2018-02-09T22:21:58.998Z,101288.15
2018-02-09T22:24:27.083Z,101290.52
2018-02-09T22:26:54.759Z,101296.08
2018-02-09T22:29:22.607Z,101294.56
2018-02-09T22:31:50.316Z,101292.55
2018-02-09T22:34:17.929Z,101292.31
2018-02-09T22:36:45.567Z,101283.75
2018-02-09T22:39:13.259Z,101290.85
2018-02-09T22:41:40.951Z,101293.13
2018-02-09T22:44:08.673Z,101290.05
2018-02-09T22:46:36.334Z,101297.16
2018-02-09T22:49:04.070Z,101296.65
2018-02-09T22:51:31.798Z,101295.78
2018-02-09T22:53:59.457Z,101292.58
2018-02-09T22:56:27.160Z,101296.81
2018-02-09T22:58:54.855Z,101299.00
2018-02-09T23:01:22.485Z,101298.31
2018-02-09T23:03:50.101Z,101300.14
2018-02-09T23:06:17.747Z,101299.77
2018-02-09T23:08:45.431Z,101295.97
2018-02-09T23:11:13.100Z,101291.97
2018-02-09T23:13:40.732Z,101290.18
2018-02-09T23:16:08.410Z,101303.73
2018-02-09T23:18:36.027Z,101299.55
2018-02-09T23:21:03.729Z,101299.67
2018-02-09T23:23:31.403Z,101301.35
2018-02-09T23:26:08.287Z,101302.88
2018-02-09T23:28:37.442Z,101300.45
2018-02-09T23:31:05.915Z,101301.72
2018-02-09T23:33:33.578Z,101299.92
2018-02-09T23:36:01.311Z,101298.52
2018-02-09T23:38:29.169Z,101294.64
2018-02-09T23:40:58.497Z,101294.05
2018-02-09T23:43:26.450Z,101293.56
2018-02-09T23:45:54.088Z,101292.57
2018-02-09T23:48:21.770Z,101295.05
2018-02-09T23:50:49.463Z,101302.05
2018-02-09T23:53:17.106Z,101296.54
2018-02-09T23:55:44.830Z,101302.74
2018-02-09T23:58:12.534Z,101297.46
